AirNav   Bose Proflight Series 2 Wireless Aviation Headset
 
 1100 users online  

9MI0 C M H S Heliport
Ypsilanti, Michigan, USA

GOING TO YPSILANTI?


FAA INFORMATION EFFECTIVE 07 NOVEMBER 2019

Location

FAA Identifier: 9MI0
Lat/Long: 42-15-50.4500N 083-39-13.2800W
42-15.840833N 083-39.221333W
42.2640139,-83.6536889
(estimated)
Elevation: 835 ft. / 254.5 m (surveyed)
Variation: 05W (1985)
From city: 2 miles N of YPSILANTI, MI
Time zone: UTC -5 (UTC -4 during Daylight Saving Time)
Zip code: 48197

Heliport Operations

Heliport use: Private use. Permission required prior to landing
Activation date: 11/1983
Control tower: no
ARTCC: CLEVELAND CENTER
FSS: LANSING FLIGHT SERVICE STATION
Attendance: CONTINUOUS
Wind indicator: yes
Segmented circle: no
Lights: FOR PERIMETER LGTS CALL 734-712-5959

Heliport Communications

WX ASOS at ARB (5 nm SW): PHONE 734-668-7173
WX ASOS at YIP (6 nm E): PHONE 734-961-6843
WX ASOS at DTW (14 nm E): PHONE 734-955-5015

Nearby radio navigation aids

VOR radial/distance  VOR name  Freq  Var
SVMr200/9.1SALEM VORTAC114.3003W
DXOr289/13.1DETROIT VOR/DME113.4006W
CRLr329/15.6CARLETON VOR/DME115.7003W
JXNr095/35.7JACKSON VOR/DME109.6005W
YQGr277/36.6WINDSOR VOR/DME113.8006W

 
NDB name  Hdg/Dist  Freq  Var  ID
TECUMSEH043/17.323906WTCU - -.-. ..-
GROSSE ILE301/24.341907WRYS .-. -.-- ...
ADRIAN045/30.327806WADG .- -.. --.

Heliport Services

Runway Information

Helipad H1

Dimensions: 80 x 60 ft. / 24 x 18 m
Surface: concrete
Runway edge lights: PERI
Operational restrictions: APP/DEP OPNS WITHIN 030-150 DEG.
Latitude: 42-15.840833N
Longitude: 083-39.221333W
Elevation: 835.0 ft.
Traffic pattern: leftleft
Markings: basic

Heliport Ownership and Management from official FAA records

Ownership: Privately-owned
Owner: SAINT JOSEPH MERCY HEALTH SYSTEM
5301 E HURON RIVER DR BOX 992
ANN ARBOR, MI 48106
Phone 734-712-3456
Manager: TOM TOCCO HELIPORT MANAGER
5301 E. HURON RIVER DRIVE BOX 992
ANN ARBOR, MI 48106
Phone 734-712-5959
OTHER CONTACT: JUDY KETTENSTOCK. 734-712-5959

Heliport Operational Statistics

Aircraft based on the field: 1
Helicopters: 1
    

Additional Remarks

FOR CD CTC DETROIT APCH AT 800-499-8181.

Instrument Procedures

There are no published instrument procedures at 9MI0.

Some nearby airports with instrument procedures:

KARB - Ann Arbor Municipal Airport (5 nm SW)
KYIP - Willow Run Airport (6 nm E)
1D2 - Canton-Plymouth-Mettetal Airport (10 nm NE)
KDTW - Detroit Metropolitan Wayne County Airport (14 nm E)
Y47 - Oakland Southwest Airport (14 nm N)
 
Loc | Ops | Rwys | IFR | FBO | Links
Com | Nav | Svcs | Stats | Notes
Area around 9MI0 (C M H S Heliport)
 
Road maps at: MapQuest Bing Google
 
Aerial photo
No photo
 
Sectional chart

 
Airport distance calculator
Flying to C M H S Heliport? Find the distance to fly.

From to 9MI0

Sunrise and sunset
Times for 17-Nov-2019
 Local
(UTC-5)
 Zulu
(UTC)
Morning civil twilight06:5811:58
Sunrise07:2912:29
Sunset17:1122:11
Evening civil twilight17:4122:41

Current date and time
Zulu (UTC)  18-Nov-2019 01:44:24
Local (UTC-5)  17-Nov-2019 20:44:24
 
METAR
KARB 
5nm SW 
734-668-7173
180053Z AUTO 00000KT 10SM OVC075 02/M07 A2994 RMK AO2 SLP148 T00171067
KYIP 
6nm E 
180053Z 00000KT 10SM OVC100 02/M04 A2994 RMK AO2 SLP146 T00221039
KDTW 
14nm E 
180053Z 00000KT 10SM FEW090 OVC140 02/M04 A2995 RMK AO2 SLP148 T00171039
TAF
KYIP 
6nm E 
171737Z 1718/1818 14005KT P6SM BKN150 OVC250 FM180400 16005KT P6SM SCT040 OVC080 FM181000 16005KT 4SM BR BKN040 OVC080 FM181600 18005KT 6SM BR SCT040 BKN080 OVC120
KDTW 
14nm E 
172102Z 1721/1824 14005KT P6SM OVC120 FM180400 16005KT P6SM SCT040 OVC080 FM181000 16005KT 4SM BR BKN040 OVC080 FM181600 18005KT 6SM BR SCT040 BKN080 OVC120 FM182000 28005KT P6SM BKN025 OVC040
NOTAMs
Click for the latest NOTAMs
NOTAMs are issued by the DoD/FAA and will open in a separate window not controlled by AirNav.

 

 
 

Would you like to see your business listed on this page?

 If your business provides an interesting product or service to pilots, flight crews, aircraft, or users of the C M H S Heliport, you should consider listing it here.  To start the listing process, click on the button below
 
Add a business
 

Other Pages about C M H S Heliport

Update a link
 
Copyright © AirNav, LLC. All rights reserved. Privacy Policy  Contact